Time;durP1;ratioP1;P1;durP2;ratioP2;P2;SDS_P1;SDS_P2;PMS_P1;PMS_P2;Temp;Humidity;BMP_temperature;BMP_pressure;BME280_temperature;BME280_humidity;BME280_pressure;Samples;Min_cycle;Max_cycle;Signal;HPM_P1;HPM_P2
2023/04/20 00:00:46;;;;;;;0.50;0.50;;;;;;;10.29;100.00;96491.50;5025998;28;20585;-70
2023/04/20 00:03:13;;;;;;;0.50;0.50;;;;;;;10.29;100.00;96485.97;5024472;28;20495;-72
2023/04/20 00:05:40;;;;;;;0.40;0.40;;;;;;;10.25;100.00;96487.91;5025528;28;20076;-72
2023/04/20 00:08:07;;;;;;;0.50;0.50;;;;;;;10.22;100.00;96480.38;5024178;28;20053;-71
2023/04/20 00:10:33;;;;;;;0.50;0.50;;;;;;;10.25;100.00;96484.34;5025559;28;20057;-72
2023/04/20 00:13:00;;;;;;;0.50;0.50;;;;;;;10.16;100.00;96476.34;5025258;28;20064;-73
2023/04/20 00:15:26;;;;;;;0.43;0.43;;;;;;;9.76;100.00;96440.38;5024091;28;20701;-72
2023/04/20 00:17:53;;;;;;;0.50;0.50;;;;;;;10.04;100.00;96468.31;5025018;28;20046;-72
2023/04/20 00:20:20;;;;;;;0.50;0.50;;;;;;;9.96;100.00;96477.72;5023829;28;20516;-72
2023/04/20 00:22:47;;;;;;;0.40;0.40;;;;;;;9.82;100.00;96460.97;5024962;28;20099;-72
2023/04/20 00:25:13;;;;;;;0.50;0.50;;;;;;;9.74;100.00;96452.97;5024768;28;20084;-69
2023/04/20 00:27:40;;;;;;;0.40;0.40;;;;;;;9.95;100.00;96467.81;5023537;28;20144;-72
2023/04/20 00:30:08;;;;;;;0.40;0.40;;;;;;;9.83;100.00;96473.63;5025367;28;20057;-71
2023/04/20 00:32:34;;;;;;;0.50;0.50;;;;;;;9.42;100.00;96402.84;5023794;28;20089;-74
2023/04/20 00:35:01;;;;;;;0.50;0.50;;;;;;;9.23;100.00;96372.66;5025226;28;20507;-73
2023/04/20 00:37:28;;;;;;;0.40;0.40;;;;;;;9.02;100.00;96350.31;5024582;28;20540;-70
2023/04/20 00:39:56;;;;;;;0.50;0.50;;;;;;;9.72;100.00;96471.94;5023500;28;20056;-74
2023/04/20 00:42:23;;;;;;;0.50;0.50;;;;;;;9.29;100.00;96415.38;5017601;28;20050;-75
2023/04/20 00:44:49;;;;;;;0.50;0.50;;;;;;;9.61;100.00;96466.25;5003810;28;20516;-71
2023/04/20 00:47:16;;;;;;;0.45;0.45;;;;;;;9.15;100.00;96398.63;5003491;28;20569;-72
2023/04/20 00:49:43;;;;;;;0.50;0.50;;;;;;;9.56;100.00;96472.16;5005236;28;20057;-72
2023/04/20 00:52:10;;;;;;;0.40;0.40;;;;;;;9.56;100.00;96474.91;5004684;28;20092;-72
2023/04/20 00:54:36;;;;;;;0.50;0.50;;;;;;;9.46;100.00;96474.78;5022045;28;20140;-72
2023/04/20 00:57:03;;;;;;;0.40;0.40;;;;;;;9.41;100.00;96472.34;5023119;28;20049;-72
2023/04/20 00:59:31;;;;;;;0.50;0.50;;;;;;;9.33;100.00;96463.16;5024841;28;20045;-71
2023/04/20 01:01:58;;;;;;;0.40;0.40;;;;;;;9.35;100.00;96469.13;5024738;28;20120;-73
2023/04/20 01:04:25;;;;;;;0.40;0.40;;;;;;;9.18;100.00;96475.22;5024399;28;20064;-73
2023/04/20 01:06:52;;;;;;;0.50;0.50;;;;;;;9.00;100.00;96469.47;5024540;28;20052;-71
2023/04/20 01:09:19;;;;;;;0.45;0.45;;;;;;;8.93;100.00;96465.81;5024733;28;20045;-71
2023/04/20 01:11:46;;;;;;;0.40;0.40;;;;;;;8.91;100.00;96468.97;5024298;28;20188;-71
2023/04/20 01:14:13;;;;;;;0.40;0.40;;;;;;;8.72;100.00;96457.22;5024345;28;20115;-71
2023/04/20 01:16:39;;;;;;;0.50;0.50;;;;;;;8.91;100.00;96468.16;5024622;28;20525;-72
2023/04/20 01:19:06;;;;;;;0.40;0.40;;;;;;;8.81;100.00;96486.16;5024079;28;20087;-70
2023/04/20 01:21:33;;;;;;;0.40;0.40;;;;;;;8.61;100.00;96440.50;5024430;28;20111;-72
2023/04/20 01:24:00;;;;;;;0.40;0.40;;;;;;;8.82;100.00;96482.22;5022220;28;20053;-73
2023/04/20 01:26:26;;;;;;;0.40;0.40;;;;;;;8.81;100.00;96477.06;5024663;28;20065;-71
2023/04/20 01:28:53;;;;;;;0.40;0.40;;;;;;;8.74;100.00;96471.47;5023761;28;20119;-73
2023/04/20 01:31:20;;;;;;;0.40;0.40;;;;;;;8.73;100.00;96475.38;5024370;28;20520;-72
2023/04/20 01:33:47;;;;;;;0.40;0.40;;;;;;;8.33;100.00;96419.97;5024247;28;20135;-72
2023/04/20 01:36:14;;;;;;;0.38;0.38;;;;;;;7.97;100.00;96381.91;5022597;28;20155;-72
2023/04/20 01:38:41;;;;;;;0.40;0.40;;;;;;;8.25;100.00;96438.34;5024267;28;20049;-72
2023/04/20 01:41:09;;;;;;;0.40;0.40;;;;;;;8.47;100.00;96478.13;5023939;28;20061;-72
2023/04/20 01:43:37;;;;;;;0.40;0.40;;;;;;;8.29;100.00;96427.38;5024022;28;20441;-71
2023/04/20 01:46:04;;;;;;;0.40;0.40;;;;;;;8.58;100.00;96468.84;5024041;28;20153;-71
2023/04/20 01:48:31;;;;;;;0.40;0.40;;;;;;;8.64;100.00;96466.56;5023788;28;20049;-71
2023/04/20 01:50:58;;;;;;;0.40;0.40;;;;;;;8.62;100.00;96485.47;5024148;28;20107;-73
2023/04/20 01:53:25;;;;;;;0.50;0.50;;;;;;;8.59;100.00;96486.19;5023599;28;20080;-71
2023/04/20 01:55:52;;;;;;;0.40;0.40;;;;;;;8.53;100.00;96465.59;5022918;28;20049;-73
2023/04/20 01:58:19;;;;;;;0.40;0.40;;;;;;;8.45;100.00;96466.66;5024109;28;20053;-70
2023/04/20 02:00:45;;;;;;;0.40;0.40;;;;;;;7.50;100.00;96336.25;5023952;28;20132;-72
2023/04/20 02:03:12;;;;;;;0.40;0.40;;;;;;;8.19;100.00;96455.59;5023283;28;20050;-71
2023/04/20 02:05:39;;;;;;;0.40;0.40;;;;;;;8.03;100.00;96465.94;5022152;28;20550;-70
2023/04/20 02:08:05;;;;;;;0.40;0.40;;;;;;;8.05;100.00;96461.63;5022275;28;20096;-71
2023/04/20 02:10:32;;;;;;;0.40;0.40;;;;;;;7.90;100.00;96434.19;5023419;28;20150;-70
2023/04/20 02:12:59;;;;;;;0.32;0.32;;;;;;;7.95;100.00;96453.19;5023588;28;20136;-73
2023/04/20 02:15:25;;;;;;;0.40;0.40;;;;;;;7.95;100.00;96455.94;5023293;28;20440;-70
2023/04/20 02:17:52;;;;;;;0.40;0.40;;;;;;;8.03;100.00;96460.44;5023690;28;20057;-73
2023/04/20 02:20:19;;;;;;;0.40;0.40;;;;;;;7.98;100.00;96460.72;5023703;28;20132;-70
2023/04/20 02:22:45;;;;;;;0.30;0.30;;;;;;;7.39;100.00;96357.31;5023575;28;20057;-72
2023/04/20 02:25:13;;;;;;;0.40;0.40;;;;;;;7.97;100.00;96453.59;5023341;28;20116;-72
2023/04/20 02:27:39;;;;;;;0.40;0.40;;;;;;;8.07;100.00;96447.47;5022212;28;20080;-73
2023/04/20 02:30:07;;;;;;;0.40;0.40;;;;;;;7.81;100.00;96389.53;5023247;28;20062;-71
2023/04/20 02:32:34;;;;;;;0.40;0.40;;;;;;;8.08;100.00;96457.38;5023152;28;20499;-72
2023/04/20 02:35:02;;;;;;;0.40;0.40;;;;;;;7.70;100.00;96412.19;5023519;28;20277;-73
2023/04/20 02:37:29;;;;;;;0.40;0.40;;;;;;;7.55;100.00;96360.75;5024342;28;20069;-72
2023/04/20 02:39:56;;;;;;;0.40;0.40;;;;;;;8.15;100.00;96449.19;5026488;28;21044;-73
2023/04/20 02:42:23;;;;;;;0.40;0.40;;;;;;;8.08;100.00;96444.34;5027373;28;20060;-74
2023/04/20 02:44:51;;;;;;;0.40;0.40;;;;;;;8.11;100.00;96440.84;5026571;28;20056;-74
2023/04/20 02:47:18;;;;;;;0.40;0.40;;;;;;;8.05;100.00;96445.09;5025475;28;20153;-71
2023/04/20 02:49:46;;;;;;;0.40;0.40;;;;;;;7.77;100.00;96388.66;5026849;28;20856;-74
2023/04/20 02:52:13;;;;;;;0.32;0.32;;;;;;;7.87;100.00;96429.41;5025222;28;20053;-74
2023/04/20 02:54:40;;;;;;;0.40;0.40;;;;;;;8.11;100.00;96453.88;5027019;28;20162;-72
2023/04/20 02:57:07;;;;;;;0.40;0.40;;;;;;;8.12;100.00;96455.44;5027037;28;20049;-73
2023/04/20 02:59:33;;;;;;;0.40;0.40;;;;;;;8.05;100.00;96455.31;5026789;28;20515;-72
2023/04/20 03:02:00;;;;;;;0.40;0.40;;;;;;;7.94;100.00;96440.56;5026009;28;20504;-73
2023/04/20 03:04:27;;;;;;;0.40;0.40;;;;;;;7.63;100.00;96390.00;5027114;28;20053;-72
2023/04/20 03:06:53;;;;;;;0.40;0.40;;;;;;;7.92;100.00;96451.16;5026682;28;20056;-70
2023/04/20 03:09:20;;;;;;;0.30;0.30;;;;;;;7.27;100.00;96376.75;5025992;28;20049;-71
2023/04/20 03:11:48;;;;;;;0.35;0.35;;;;;;;7.48;100.00;96436.97;5025446;28;20053;-71
2023/04/20 03:14:15;;;;;;;0.40;0.40;;;;;;;7.14;100.00;96383.63;5026336;28;20111;-74
2023/04/20 03:16:42;;;;;;;0.40;0.40;;;;;;;6.55;100.00;96299.81;5026329;28;20049;-74
2023/04/20 03:19:09;;;;;;;0.40;0.40;;;;;;;7.60;100.00;96467.13;5026319;28;20053;-73
2023/04/20 03:21:35;;;;;;;0.32;0.32;;;;;;;7.57;100.00;96459.59;5026920;28;20541;-74
2023/04/20 03:24:03;;;;;;;0.40;0.40;;;;;;;6.75;100.00;96393.00;5025966;28;20637;-73
2023/04/20 03:26:30;;;;;;;0.40;0.40;;;;;;;6.83;100.00;96328.72;5026943;28;20084;-71
2023/04/20 03:28:57;;;;;;;0.40;0.40;;;;;;;7.61;100.00;96430.94;5027024;28;20582;-73
2023/04/20 03:31:24;;;;;;;0.40;0.40;;;;;;;7.15;100.00;96390.69;5026767;28;20056;-74
2023/04/20 03:33:50;;;;;;;0.40;0.40;;;;;;;6.56;100.00;96274.69;5026667;28;20435;-73
2023/04/20 03:36:17;;;;;;;0.30;0.30;;;;;;;7.68;100.00;96453.09;5024966;28;20115;-74
2023/04/20 03:38:44;;;;;;;0.40;0.40;;;;;;;7.32;100.00;96394.94;5026077;28;20049;-73
2023/04/20 03:41:10;;;;;;;0.40;0.40;;;;;;;7.74;100.00;96457.16;5024479;28;20038;-73
2023/04/20 03:43:37;;;;;;;0.40;0.40;;;;;;;7.79;100.00;96464.34;5025871;28;20080;-74
2023/04/20 03:46:04;;;;;;;0.40;0.40;;;;;;;7.75;100.00;96457.94;5025826;28;20103;-71
2023/04/20 03:48:31;;;;;;;0.40;0.40;;;;;;;7.84;100.00;96449.44;5025918;28;20049;-72
2023/04/20 03:50:58;;;;;;;0.40;0.40;;;;;;;7.64;100.00;96457.75;5026125;28;20057;-73
2023/04/20 03:53:25;;;;;;;0.40;0.40;;;;;;;7.69;100.00;96446.44;5025882;28;20128;-74
2023/04/20 03:55:51;;;;;;;0.30;0.30;;;;;;;7.13;100.00;96387.50;5024209;28;20057;-74
2023/04/20 03:58:18;;;;;;;0.40;0.40;;;;;;;7.64;100.00;96462.47;5025331;28;20091;-71
2023/04/20 04:00:45;;;;;;;0.40;0.40;;;;;;;7.67;100.00;96465.31;5018910;28;20089;-73
2023/04/20 04:03:11;;;;;;;0.30;0.30;;;;;;;7.69;100.00;96443.69;5037254;28;20122;-63
2023/04/20 04:05:42;;;;;;;0.40;0.40;;;;;;;7.69;100.00;96424.41;5024794;28;20045;-60
2023/04/20 04:08:09;;;;;;;0.40;0.40;;;;;;;7.30;100.00;96337.47;5025256;28;20061;-59
2023/04/20 04:10:35;;;;;;;0.40;0.40;;;;;;;7.73;100.00;96405.13;5025027;28;20504;-60
2023/04/20 04:13:02;;;;;;;0.40;0.40;;;;;;;7.63;100.00;96389.22;5017012;28;82015;-62
2023/04/20 04:15:28;;;;;;;0.40;0.40;;;;;;;8.01;100.00;96433.22;5017496;28;20669;-60
2023/04/20 04:17:55;;;;;;;0.40;0.40;;;;;;;8.19;100.00;96461.09;5006132;28;20077;-60
2023/04/20 04:20:22;;;;;;;0.40;0.40;;;;;;;8.40;100.00;96461.44;5003713;28;20137;-60
2023/04/20 04:22:48;;;;;;;0.40;0.40;;;;;;;8.44;100.00;96463.09;5005734;28;20121;-60
2023/04/20 04:25:16;;;;;;;0.40;0.40;;;;;;;7.96;100.00;96391.34;5005417;28;20089;-59
2023/04/20 04:27:45;;;;;;;0.40;0.40;;;;;;;7.92;100.00;96383.00;5005572;28;20124;-61
2023/04/20 04:30:12;;;;;;;0.40;0.40;;;;;;;8.17;100.00;96375.94;5005467;28;20091;-59
2023/04/20 04:32:39;;;;;;;0.40;0.40;;;;;;;8.63;100.00;96427.13;5020439;28;20046;-61
2023/04/20 04:35:06;;;;;;;0.50;0.50;;;;;;;9.00;100.00;96457.63;5020269;28;20120;-60
2023/04/20 04:37:33;;;;;;;0.40;0.40;;;;;;;8.78;100.00;96409.59;4998837;28;41655;-61
2023/04/20 04:40:05;;;;;;;0.40;0.40;;;;;;;8.70;99.22;96420.91;5017488;28;20103;-59
2023/04/20 04:42:33;;;;;;;0.50;0.50;;;;;;;8.99;98.61;96478.13;5020196;28;20050;-59
2023/04/20 04:45:01;;;;;;;0.40;0.40;;;;;;;8.79;98.69;96424.16;5020124;28;20054;-59
2023/04/20 04:47:30;;;;;;;0.40;0.40;;;;;;;8.98;96.35;96343.94;5006920;28;20064;-61
2023/04/20 04:49:58;;;;;;;0.40;0.40;;;;;;;9.31;95.23;96479.31;5024515;28;20308;-59
2023/04/20 04:52:26;;;;;;;0.40;0.40;;;;;;;9.43;95.79;96470.81;5019631;28;20160;-60
2023/04/20 04:54:53;;;;;;;0.50;0.50;;;;;;;9.51;95.93;96466.97;5020150;28;20472;-59
2023/04/20 04:57:19;;;;;;;0.40;0.40;;;;;;;9.67;94.10;96470.31;5022956;28;20587;-60
2023/04/20 04:59:46;;;;;;;0.50;0.50;;;;;;;9.83;94.00;96470.84;5024158;28;20135;-60
2023/04/20 05:02:12;;;;;;;0.50;0.50;;;;;;;9.91;94.59;96447.63;5024057;28;20148;-60
2023/04/20 05:04:39;;;;;;;0.50;0.50;;;;;;;10.14;93.98;96478.72;5023939;28;20053;-60
2023/04/20 05:07:09;;;;;;;0.50;0.50;;;;;;;10.30;93.47;96468.19;5023978;28;20072;-60
2023/04/20 05:09:36;;;;;;;0.50;0.50;;;;;;;10.42;93.07;96454.03;5021811;28;20165;-60
2023/04/20 05:12:03;;;;;;;0.40;0.40;;;;;;;10.21;92.29;96409.56;5024061;28;20053;-59
2023/04/20 05:14:30;;;;;;;0.45;0.45;;;;;;;10.53;92.43;96418.13;5024210;28;20053;-60
2023/04/20 05:16:58;;;;;;;0.50;0.50;;;;;;;11.05;91.50;96461.97;5024140;28;20107;-61
2023/04/20 05:19:25;;;;;;;0.50;0.50;;;;;;;11.06;88.58;96479.41;5022671;28;20516;-60
2023/04/20 05:21:52;;;;;;;0.50;0.50;;;;;;;11.31;87.39;96485.88;5023878;28;20458;-58
2023/04/20 05:24:18;;;;;;;0.50;0.50;;;;;;;11.45;86.29;96481.22;5023719;28;20503;-58
2023/04/20 05:26:45;;;;;;;0.50;0.50;;;;;;;11.48;86.11;96474.09;5022720;28;20136;-59
2023/04/20 05:29:13;;;;;;;0.50;0.50;;;;;;;11.28;85.30;96443.13;5023842;28;20103;-60
2023/04/20 05:31:39;;;;;;;0.50;0.50;;;;;;;11.51;85.67;96473.28;5024476;28;20053;-59
2023/04/20 05:34:06;;;;;;;0.50;0.50;;;;;;;11.50;84.58;96460.63;5024440;28;20129;-60
2023/04/20 05:36:33;;;;;;;0.50;0.50;;;;;;;11.26;83.97;96414.97;5024140;28;20081;-59
2023/04/20 05:38:59;;;;;;;0.50;0.50;;;;;;;10.96;83.85;96358.22;5014613;28;20632;-64
2023/04/20 05:41:26;;;;;;;0.50;0.50;;;;;;;11.97;84.97;96485.38;5007441;28;20566;-71
2023/04/20 05:43:54;;;;;;;0.50;0.50;;;;;;;11.10;83.36;96308.38;5002152;28;20471;-63
2023/04/20 05:46:20;;;;;;;0.50;0.50;;;;;;;12.11;81.47;96429.88;4992954;28;20054;-60
2023/04/20 05:48:48;;;;;;;0.55;0.55;;;;;;;12.27;80.72;96432.28;5003831;28;20054;-69
2023/04/20 05:51:14;;;;;;;0.50;0.50;;;;;;;11.89;80.55;96351.38;5002732;28;20085;-59
2023/04/20 05:53:41;;;;;;;0.52;0.52;;;;;;;12.63;80.01;96443.00;5019083;28;20072;-70
2023/04/20 05:56:08;;;;;;;0.60;0.60;;;;;;;13.00;77.93;96476.75;5018488;28;20053;-61
2023/04/20 05:58:36;;;;;;;0.60;0.60;;;;;;;13.11;76.17;96471.94;5012844;28;20575;-66
2023/04/20 06:01:03;;;;;;;0.60;0.60;;;;;;;12.66;76.13;96372.72;5032446;28;20060;-66
2023/04/20 06:03:30;;;;;;;0.60;0.60;;;;;;;13.23;75.03;96452.03;5004197;28;20137;-69
2023/04/20 06:05:57;;;;;;;0.60;0.60;;;;;;;13.63;74.43;96486.88;5008208;28;20053;-61
2023/04/20 06:08:23;;;;;;;0.57;0.57;;;;;;;13.65;73.94;96449.13;5003971;28;20219;-61
2023/04/20 06:10:57;;;;;;;0.60;0.60;;;;;;;13.98;72.00;96480.38;5008642;28;20046;-63
2023/04/20 06:13:24;;;;;;;0.68;0.68;;;;;;;13.52;71.61;96392.34;5012119;28;20107;-68
2023/04/20 06:15:51;;;;;;;0.70;0.70;;;;;;;14.23;72.10;96481.00;5017361;28;20081;-70
2023/04/20 06:18:19;;;;;;;0.60;0.60;;;;;;;14.32;72.58;96456.31;5007161;28;20089;-67
2023/04/20 06:20:45;;;;;;;0.60;0.60;;;;;;;14.45;72.40;96460.97;5007423;28;20505;-68
2023/04/20 06:23:12;;;;;;;0.70;0.70;;;;;;;14.94;71.31;96476.50;5007826;28;20123;-62
2023/04/20 06:25:39;;;;;;;0.60;0.60;;;;;;;14.85;70.04;96462.25;5008040;28;20057;-65
2023/04/20 06:28:06;;;;;;;0.65;0.65;;;;;;;14.67;67.93;96428.16;5007611;28;20050;-71
2023/04/20 06:30:33;;;;;;;0.60;0.60;;;;;;;15.04;67.75;96478.41;5018730;28;20477;-60
2023/04/20 06:33:01;;;;;;;0.65;0.65;;;;;;;15.03;68.79;96446.16;5024876;28;20064;-64
2023/04/20 06:35:28;;;;;;;0.65;0.65;;;;;;;14.70;68.25;96366.03;5010882;28;20054;-75
2023/04/20 06:37:56;;;;;;;0.80;0.80;;;;;;;15.23;66.48;96449.91;5009209;28;20058;-70
2023/04/20 06:40:26;;;;;;;0.70;0.70;;;;;;;14.73;65.77;96321.34;5023030;28;20049;-63
2023/04/20 06:42:53;;;;;;;0.60;0.60;;;;;;;15.74;64.75;96452.56;5006643;28;20326;-63
2023/04/20 06:45:20;;;;;;;0.60;0.60;;;;;;;16.13;63.90;96519.88;5018466;28;20057;-66
2023/04/20 06:47:47;;;;;;;0.70;0.70;;;;;;;15.69;59.10;96404.75;5019578;28;20053;-64
2023/04/20 06:50:14;;;;;;;0.70;0.70;;;;;;;16.09;59.38;96438.09;5006715;28;20104;-62
2023/04/20 06:52:41;;;;;;;0.70;0.70;;;;;;;16.34;56.05;96457.31;5020385;28;20119;-60
2023/04/20 06:55:08;;;;;;;0.70;0.70;;;;;;;16.66;53.88;96473.63;5025845;28;20127;-64
2023/04/20 06:57:37;;;;;;;0.60;0.60;;;;;;;16.39;54.50;96404.50;5010319;28;20123;-61
2023/04/20 07:00:09;;;;;;;0.80;0.80;;;;;;;15.70;53.67;96295.44;5008384;28;20472;-65
2023/04/20 07:02:47;;;;;;;0.70;0.70;;;;;;;16.56;54.66;96456.59;5024471;28;20049;-60
2023/04/20 07:05:15;;;;;;;0.70;0.70;;;;;;;16.67;55.19;96483.59;5026312;28;20049;-60
2023/04/20 07:07:42;;;;;;;0.70;0.70;;;;;;;16.26;53.38;96484.56;5013050;28;20057;-63
2023/04/20 07:10:11;;;;;;;0.70;0.70;;;;;;;16.20;54.06;96441.53;5025139;28;20516;-61
2023/04/20 07:12:39;;;;;;;0.70;0.70;;;;;;;15.82;54.69;96475.59;5010500;28;20092;-61
2023/04/20 07:15:09;;;;;;;0.65;0.65;;;;;;;15.58;55.53;96477.47;5009838;28;20050;-64
2023/04/20 07:17:36;;;;;;;0.70;0.70;;;;;;;15.93;56.47;96481.84;5023728;28;20057;-67
2023/04/20 07:20:07;;;;;;;0.60;0.60;;;;;;;16.31;55.28;96481.28;5026123;28;20045;-64
2023/04/20 07:22:35;;;;;;;0.70;0.70;;;;;;;16.45;53.86;96464.34;5024966;28;20046;-70
2023/04/20 07:25:04;;;;;;;0.60;0.60;;;;;;;16.08;54.19;96400.19;5013475;28;20057;-61
2023/04/20 07:27:37;;;;;;;0.70;0.70;;;;;;;16.55;52.24;96480.16;5023282;28;20089;-62
2023/04/20 07:30:05;;;;;;;0.60;0.60;;;;;;;16.55;53.68;96463.38;5025510;28;20092;-76
2023/04/20 07:32:32;;;;;;;0.70;0.70;;;;;;;16.28;51.54;96482.13;5019254;28;20050;-67
2023/04/20 07:34:59;;;;;;;0.60;0.60;;;;;;;16.08;51.21;96483.22;5021088;28;20483;-69
2023/04/20 07:37:26;;;;;;;0.65;0.65;;;;;;;16.15;49.98;96477.53;5009351;28;20107;-66
2023/04/20 07:39:53;;;;;;;0.70;0.70;;;;;;;16.58;50.84;96478.53;5019122;28;20054;-65
2023/04/20 07:42:20;;;;;;;0.70;0.70;;;;;;;16.18;47.79;96477.50;5009358;28;20080;-62
2023/04/20 07:44:47;;;;;;;0.65;0.65;;;;;;;16.31;48.10;96419.78;5023757;28;20057;-61
2023/04/20 07:47:15;;;;;;;0.70;0.70;;;;;;;16.96;48.43;96470.72;5013971;28;20053;-63
2023/04/20 07:49:42;;;;;;;0.70;0.70;;;;;;;17.07;46.85;96426.56;5007764;28;20091;-66
2023/04/20 07:52:09;;;;;;;0.70;0.70;;;;;;;17.48;46.29;96469.00;5008199;28;20554;-66
2023/04/20 07:54:43;;;;;;;;;;;;;;;17.68;45.98;96464.19;5025882;28;20488;-59
2023/04/20 07:57:10;;;;;;;0.63;0.63;;;;;;;15.86;46.27;96197.84;5025113;28;19976;-66
2023/04/20 07:59:36;;;;;;;0.70;0.70;;;;;;;17.91;44.68;96464.13;5012563;28;20041;-61
2023/04/20 08:02:03;;;;;;;0.70;0.70;;;;;;;17.20;42.71;96410.72;5009473;28;20107;-63
2023/04/20 08:04:30;;;;;;;0.70;0.70;;;;;;;17.56;43.03;96459.25;5032374;28;20532;-62
2023/04/20 08:06:57;;;;;;;0.82;0.82;;;;;;;17.96;43.86;96458.00;5006472;28;20608;-62
2023/04/20 08:09:25;;;;;;;0.70;0.70;;;;;;;17.90;42.91;96468.16;5016161;28;20042;-64
2023/04/20 08:11:51;;;;;;;0.70;0.70;;;;;;;17.87;42.29;96390.56;5019424;28;20046;-66
2023/04/20 08:14:18;;;;;;;0.70;0.70;;;;;;;18.42;42.99;96466.22;5020024;28;20065;-75
2023/04/20 08:16:45;;;;;;;0.80;0.80;;;;;;;18.56;43.88;96423.81;5011506;28;20061;-71
2023/04/20 08:19:12;;;;;;;0.80;0.80;;;;;;;18.95;42.67;96437.66;5017097;28;20092;-64
2023/04/20 08:21:40;;;;;;;0.80;0.80;;;;;;;18.35;41.56;96343.00;5009681;28;20138;-62
2023/04/20 08:24:07;;;;;;;0.90;0.90;;;;;;;18.96;41.03;96422.41;5010497;28;20217;-63
2023/04/20 08:26:35;;;;;;;0.80;0.80;;;;;;;19.24;40.59;96449.75;5018532;28;20108;-64
2023/04/20 08:29:03;;;;;;;0.80;0.80;;;;;;;18.84;41.80;96451.19;5005659;28;20054;-70
2023/04/20 08:31:30;;;;;;;0.70;0.70;;;;;;;18.58;41.83;96429.78;5008572;28;20127;-62
2023/04/20 08:33:57;;;;;;;0.80;0.80;;;;;;;18.60;39.51;96407.72;5014281;28;20072;-66
2023/04/20 08:36:25;;;;;;;0.80;0.80;;;;;;;18.57;39.83;96372.13;5018189;28;20508;-68
2023/04/20 08:39:07;;;;;;;0.77;0.77;;;;;;;18.82;40.42;96413.56;5008747;28;20164;-66
2023/04/20 08:41:34;;;;;;;0.80;0.80;;;;;;;19.26;40.18;96432.47;5013464;28;20054;-73
2023/04/20 08:44:01;;;;;;;0.70;0.70;;;;;;;18.96;40.25;96430.84;5021755;28;20516;-68
2023/04/20 08:46:28;;;;;;;0.70;0.70;;;;;;;19.01;39.54;96433.13;5021458;28;20083;-68
2023/04/20 08:48:56;;;;;;;0.80;0.80;;;;;;;19.36;39.52;96435.00;5017185;28;20508;-62
2023/04/20 08:51:23;;;;;;;0.80;0.80;;;;;;;18.77;39.09;96347.53;5004853;28;20151;-68
2023/04/20 08:53:50;;;;;;;0.75;0.75;;;;;;;18.77;38.67;96386.81;5020416;28;20083;-67
2023/04/20 08:56:17;;;;;;;0.80;0.80;;;;;;;18.05;41.10;96335.69;5022780;28;20511;-65
2023/04/20 08:58:44;;;;;;;0.80;0.80;;;;;;;18.85;40.00;96405.06;5022029;28;20142;-69
2023/04/20 09:01:11;;;;;;;0.70;0.70;;;;;;;19.26;39.59;96407.97;5022309;28;20077;-70
2023/04/20 09:03:43;;;;;;;0.70;0.70;;;;;;;19.48;39.98;96397.75;5021455;28;20107;-65
2023/04/20 09:06:17;;;;;;;0.80;0.80;;;;;;;19.67;38.94;96369.94;5006446;28;20485;-65
2023/04/20 09:08:45;;;;;;;0.85;0.85;;;;;;;19.73;38.36;96337.25;5004131;28;20056;-65
2023/04/20 09:11:23;;;;;;;0.80;0.80;;;;;;;19.98;39.23;96399.13;5007647;28;20605;-61
2023/04/20 09:14:00;;;;;;;0.80;0.80;;;;;;;18.63;41.51;96432.06;5015916;28;20163;-69
2023/04/20 09:16:28;;;;;;;0.80;0.80;;;;;;;18.73;41.69;96430.25;5022779;28;20134;-74
2023/04/20 09:18:55;;;;;;;0.80;0.80;;;;;;;18.57;40.55;96360.91;5018298;28;20058;-62
2023/04/20 09:21:24;;;;;;;0.70;0.70;;;;;;;19.35;40.75;96410.16;5004102;28;20074;-63
2023/04/20 09:24:05;;;;;;;0.70;0.70;;;;;;;18.27;42.25;96313.53;5002829;28;20129;-62
2023/04/20 09:26:33;;;;;;;0.70;0.70;;;;;;;19.54;42.06;96429.69;5004118;28;20484;-65
2023/04/20 09:29:03;;;;;;;0.90;0.90;;;;;;;19.81;40.67;96400.44;5019053;28;20054;-68
2023/04/20 09:31:30;;;;;;;0.80;0.80;;;;;;;20.50;39.75;96394.69;5008685;28;20072;-67
2023/04/20 09:34:03;;;;;;;0.80;0.80;;;;;;;20.91;38.20;96424.72;5017576;28;20527;-69
2023/04/20 09:36:41;;;;;;;0.90;0.90;;;;;;;19.98;39.71;96391.47;5016523;28;20053;-74
2023/04/20 09:39:10;;;;;;;0.80;0.80;;;;;;;20.77;40.73;96419.56;5013092;28;20062;-72
2023/04/20 09:41:38;;;;;;;0.90;0.90;;;;;;;20.81;40.99;96415.38;5005936;28;20062;-74
2023/04/20 09:44:07;;;;;;;0.90;0.90;;;;;;;18.78;42.13;96349.09;5014952;28;20064;-76
2023/04/20 09:46:35;;;;;;;0.90;0.90;;;;;;;19.22;41.73;96306.19;5022314;28;20438;-75
2023/04/20 09:49:05;;;;;;;0.80;0.80;;;;;;;20.52;40.40;96414.72;5023684;28;20558;-73
2023/04/20 09:51:35;;;;;;;0.73;0.73;;;;;;;19.88;39.52;96285.78;5019302;28;20085;-75
2023/04/20 09:54:04;;;;;;;0.75;0.75;;;;;;;20.53;40.58;96387.38;5003051;28;20971;-61
2023/04/20 09:56:33;;;;;;;0.90;0.90;;;;;;;18.94;40.52;96351.88;5022106;28;20049;-62
2023/04/20 09:59:01;;;;;;;0.80;0.80;;;;;;;19.73;40.95;96424.38;5019435;28;20049;-64
2023/04/20 10:01:33;;;;;;;0.80;0.80;;;;;;;19.83;41.02;96414.84;5020568;28;20049;-72
2023/04/20 10:04:02;;;;;;;0.85;0.85;;;;;;;19.80;39.87;96418.53;5018602;28;20095;-64
2023/04/20 10:06:32;;;;;;;0.80;0.80;;;;;;;19.90;40.07;96412.59;5002574;28;20062;-70
2023/04/20 10:09:01;;;;;;;0.80;0.80;;;;;;;20.30;39.28;96401.78;5001844;28;20046;-66
2023/04/20 10:11:36;;;;;;;0.90;0.90;;;;;;;20.18;38.18;96360.38;5020715;28;20054;-73
2023/04/20 10:14:23;;;;;;;0.80;0.80;;;;;;;20.81;39.15;96397.69;5017680;28;20049;-75
2023/04/20 10:17:01;;;;;;;0.90;0.90;;;;;;;21.15;40.14;96361.13;5023107;28;20057;-63
2023/04/20 10:19:43;;;;;;;0.80;0.80;;;;;;;21.62;37.63;96389.25;5019672;28;20483;-63
2023/04/20 10:22:12;;;;;;;1.00;1.00;;;;;;;21.98;37.00;96362.09;5010550;28;20050;-64
2023/04/20 10:24:39;;;;;;;1.02;1.02;;;;;;;21.50;36.64;96311.94;5015306;28;20556;-63
2023/04/20 10:27:26;;;;;;;1.00;1.00;;;;;;;21.60;37.32;96386.88;5001355;28;20452;-70
2023/04/20 10:29:52;;;;;;;0.90;0.90;;;;;;;20.90;36.68;96361.19;5014167;28;20133;-67
2023/04/20 10:32:26;;;;;;;0.90;0.90;;;;;;;20.86;37.31;96388.69;5007992;28;20484;-72
2023/04/20 10:35:03;;;;;;;1.00;1.00;;;;;;;21.12;36.29;96390.22;5009879;28;20114;-70
2023/04/20 10:37:31;;;;;;;0.80;0.80;;;;;;;20.36;38.10;96400.00;5020617;28;20145;-67
2023/04/20 10:39:58;;;;;;;0.80;0.80;;;;;;;19.72;39.26;96391.88;5010706;28;20063;-66
2023/04/20 10:42:28;;;;;;;0.80;0.80;;;;;;;18.26;38.58;96128.94;5017936;28;20049;-66
2023/04/20 10:44:55;;;;;;;0.80;0.80;;;;;;;20.89;37.21;96377.31;5020205;28;20053;-63
2023/04/20 10:47:30;;;;;;;0.80;0.80;;;;;;;20.28;36.32;96246.75;5016458;28;20062;-61
2023/04/20 10:50:06;;;;;;;0.90;0.90;;;;;;;20.08;36.18;96136.50;5008256;28;20050;-65
2023/04/20 10:52:37;;;;;;;0.90;0.90;;;;;;;21.28;35.83;96290.66;5019507;28;20084;-62
2023/04/20 10:55:06;;;;;;;1.00;1.00;;;;;;;22.27;35.05;96390.00;5012898;28;20061;-62
2023/04/20 10:57:32;;;;;;;1.00;1.00;;;;;;;21.53;36.30;96364.56;5009498;28;20265;-63
2023/04/20 10:59:59;;;;;;;1.10;1.10;;;;;;;22.39;36.38;96381.44;5007482;28;20131;-71
2023/04/20 11:02:26;;;;;;;0.98;0.98;;;;;;;21.86;36.49;96337.56;5020984;28;20091;-62
2023/04/20 11:04:59;;;;;;;1.10;1.10;;;;;;;20.50;37.83;96295.44;5024562;28;20569;-61
2023/04/20 11:07:26;;;;;;;0.80;0.80;;;;;;;19.17;44.46;96405.00;5021504;28;20242;-70
2023/04/20 11:09:55;;;;;;;0.80;0.80;;;;;;;17.07;50.86;96485.31;5006576;28;20555;-62
2023/04/20 11:12:21;;;;;;;0.70;0.70;;;;;;;15.95;58.43;96390.81;5006230;28;20041;-66
2023/04/20 11:15:01;;;;;;;0.75;0.75;;;;;;;15.67;66.70;96413.53;5016023;28;20057;-70
2023/04/20 11:17:35;;;;;;;0.70;0.70;;;;;;;14.77;72.76;96285.09;5025291;28;20503;-68
2023/04/20 11:20:11;;;;;;;0.60;0.60;;;;;;;15.37;64.21;96432.22;5025386;28;20062;-68
2023/04/20 11:22:39;;;;;;;0.60;0.60;;;;;;;13.41;71.51;96163.47;5011672;28;20538;-70
2023/04/20 11:25:09;;;;;;;0.60;0.60;;;;;;;14.96;77.37;96412.75;5040317;28;20045;-70
2023/04/20 11:27:37;;;;;;;0.70;0.70;;;;;;;14.46;75.22;96422.78;5021869;28;20136;-72
2023/04/20 11:30:05;;;;;;;0.70;0.70;;;;;;;13.97;70.78;96273.53;5021013;28;20239;-71
2023/04/20 11:32:33;;;;;;;0.60;0.60;;;;;;;14.53;70.94;96333.50;5016809;28;20042;-72
2023/04/20 11:35:06;;;;;;;0.70;0.70;;;;;;;15.57;68.46;96402.53;5019046;28;20050;-67
2023/04/20 11:37:46;;;;;;;0.60;0.60;;;;;;;16.07;74.46;96392.25;5022477;28;20091;-64